Leslie, Michigan
Current Conditions -  °F | °C
As of 7:12 PM on Wednesday 22 Oct 2014 (Local Time) from KTEW Reporting Station
Broken Clouds Broken Clouds  
Wind Chill: 44°   Ceiling: 2200
Heat Index: 44°   Visibility: 10mi
Dew Point: 37°   Wind: 0mph
Humidity: 79%   Direction: NA
Pressure: 30.3"   Gusts: NA
Location:  42.45°N, 84.43°W
Report Text: KTEW 222312Z AUTO 00000KT 10SM BKN022 06/03 A3030 RMK AO2 T00640030
Loading
Personal Weather Stations






























Interactive Weather Map
Tropical Storm Tracking
New forecast layout! Learn more

10-Day Weather Forecast

Advertisements
Track Severe Weather on mobile